sensor_id;sensor_type;location;lat;lon;timestamp;temperature;humidity
59857;DHT22;45733;52.668;6.860;2022-08-21T00:01:20;16.30;99.90
59857;DHT22;45733;52.668;6.860;2022-08-21T00:03:46;16.30;99.90
59857;DHT22;45733;52.668;6.860;2022-08-21T00:06:13;16.20;99.90
59857;DHT22;45733;52.668;6.860;2022-08-21T00:08:39;16.10;99.90
59857;DHT22;45733;52.668;6.860;2022-08-21T00:11:05;16.10;99.90
59857;DHT22;45733;52.668;6.860;2022-08-21T00:13:31;16.00;99.90
59857;DHT22;45733;52.668;6.860;2022-08-21T00:15:57;16.00;99.90
59857;DHT22;45733;52.668;6.860;2022-08-21T00:18:26;16.00;99.90
59857;DHT22;45733;52.668;6.860;2022-08-21T00:21:00;16.00;99.90
59857;DHT22;45733;52.668;6.860;2022-08-21T00:23:26;16.00;99.90
59857;DHT22;45733;52.668;6.860;2022-08-21T00:25:52;16.00;99.90
59857;DHT22;45733;52.668;6.860;2022-08-21T00:28:18;15.90;99.90
59857;DHT22;45733;52.668;6.860;2022-08-21T00:30:44;15.90;99.90
59857;DHT22;45733;52.668;6.860;2022-08-21T00:33:11;15.80;99.90
59857;DHT22;45733;52.668;6.860;2022-08-21T00:35:40;15.80;99.90
59857;DHT22;45733;52.668;6.860;2022-08-21T00:38:07;15.80;99.90
59857;DHT22;45733;52.668;6.860;2022-08-21T00:40:41;15.70;99.90
59857;DHT22;45733;52.668;6.860;2022-08-21T00:43:08;15.70;99.90
59857;DHT22;45733;52.668;6.860;2022-08-21T00:45:34;15.60;99.90
59857;DHT22;45733;52.668;6.860;2022-08-21T00:48:00;15.60;99.90
59857;DHT22;45733;52.668;6.860;2022-08-21T00:50:31;15.50;99.90
59857;DHT22;45733;52.668;6.860;2022-08-21T00:52:58;15.50;99.90
59857;DHT22;45733;52.668;6.860;2022-08-21T00:55:25;15.40;99.90
59857;DHT22;45733;52.668;6.860;2022-08-21T00:57:52;15.40;99.90
59857;DHT22;45733;52.668;6.860;2022-08-21T01:00:27;15.40;99.90
59857;DHT22;45733;52.668;6.860;2022-08-21T01:02:55;15.30;99.90
59857;DHT22;45733;52.668;6.860;2022-08-21T01:05:21;15.40;99.90
59857;DHT22;45733;52.668;6.860;2022-08-21T01:07:46;15.40;99.90
59857;DHT22;45733;52.668;6.860;2022-08-21T01:10:13;15.50;99.90
59857;DHT22;45733;52.668;6.860;2022-08-21T01:12:40;15.50;99.90
59857;DHT22;45733;52.668;6.860;2022-08-21T01:15:08;15.50;99.90
59857;DHT22;45733;52.668;6.860;2022-08-21T01:17:35;15.50;99.90
59857;DHT22;45733;52.668;6.860;2022-08-21T01:20:04;15.50;99.90
59857;DHT22;45733;52.668;6.860;2022-08-21T01:22:30;15.50;99.90
59857;DHT22;45733;52.668;6.860;2022-08-21T01:24:56;15.50;99.90
59857;DHT22;45733;52.668;6.860;2022-08-21T01:27:22;15.40;99.90
59857;DHT22;45733;52.668;6.860;2022-08-21T01:29:57;15.40;99.90
59857;DHT22;45733;52.668;6.860;2022-08-21T01:32:25;15.30;99.90
59857;DHT22;45733;52.668;6.860;2022-08-21T01:34:52;15.20;99.90
59857;DHT22;45733;52.668;6.860;2022-08-21T01:37:20;15.30;99.90
59857;DHT22;45733;52.668;6.860;2022-08-21T01:39:46;15.40;99.90
59857;DHT22;45733;52.668;6.860;2022-08-21T01:42:13;15.40;99.90
59857;DHT22;45733;52.668;6.860;2022-08-21T01:44:40;15.40;99.90
59857;DHT22;45733;52.668;6.860;2022-08-21T01:47:08;15.40;99.90
59857;DHT22;45733;52.668;6.860;2022-08-21T01:49:36;15.40;99.90
59857;DHT22;45733;52.668;6.860;2022-08-21T01:52:03;15.40;99.90
59857;DHT22;45733;52.668;6.860;2022-08-21T01:54:29;15.30;99.90
59857;DHT22;45733;52.668;6.860;2022-08-21T01:56:55;15.20;99.90
59857;DHT22;45733;52.668;6.860;2022-08-21T01:59:22;15.20;99.90
59857;DHT22;45733;52.668;6.860;2022-08-21T02:01:49;15.20;99.90
59857;DHT22;45733;52.668;6.860;2022-08-21T02:04:14;15.20;99.90
59857;DHT22;45733;52.668;6.860;2022-08-21T02:06:40;15.20;99.90
59857;DHT22;45733;52.668;6.860;2022-08-21T02:09:10;15.10;99.90
59857;DHT22;45733;52.668;6.860;2022-08-21T02:11:37;15.00;99.90
59857;DHT22;45733;52.668;6.860;2022-08-21T02:14:07;15.00;99.90
59857;DHT22;45733;52.668;6.860;2022-08-21T02:16:33;14.90;99.90
59857;DHT22;45733;52.668;6.860;2022-08-21T02:18:59;14.90;99.90
59857;DHT22;45733;52.668;6.860;2022-08-21T02:21:24;14.90;99.90
59857;DHT22;45733;52.668;6.860;2022-08-21T02:23:51;14.90;99.90
59857;DHT22;45733;52.668;6.860;2022-08-21T02:26:17;14.80;99.90
59857;DHT22;45733;52.668;6.860;2022-08-21T02:28:43;14.80;99.90
59857;DHT22;45733;52.668;6.860;2022-08-21T02:31:10;14.80;99.90
59857;DHT22;45733;52.668;6.860;2022-08-21T02:33:35;14.70;99.90
59857;DHT22;45733;52.668;6.860;2022-08-21T02:36:02;14.70;99.90
59857;DHT22;45733;52.668;6.860;2022-08-21T02:38:30;14.60;99.90
59857;DHT22;45733;52.668;6.860;2022-08-21T02:40:59;14.50;99.90
59857;DHT22;45733;52.668;6.860;2022-08-21T02:43:26;14.50;99.90
59857;DHT22;45733;52.668;6.860;2022-08-21T02:45:53;14.50;99.90
59857;DHT22;45733;52.668;6.860;2022-08-21T02:48:23;14.40;99.90
59857;DHT22;45733;52.668;6.860;2022-08-21T02:50:59;14.40;99.90
59857;DHT22;45733;52.668;6.860;2022-08-21T02:53:25;14.40;99.90
59857;DHT22;45733;52.668;6.860;2022-08-21T02:55:52;14.40;99.90
59857;DHT22;45733;52.668;6.860;2022-08-21T02:58:23;14.50;99.90
59857;DHT22;45733;52.668;6.860;2022-08-21T03:00:50;14.40;99.90
59857;DHT22;45733;52.668;6.860;2022-08-21T03:03:16;14.40;99.90
59857;DHT22;45733;52.668;6.860;2022-08-21T03:05:43;14.40;99.90
59857;DHT22;45733;52.668;6.860;2022-08-21T03:08:11;14.30;99.90
59857;DHT22;45733;52.668;6.860;2022-08-21T03:10:41;14.20;99.90
59857;DHT22;45733;52.668;6.860;2022-08-21T03:13:07;14.10;99.90
59857;DHT22;45733;52.668;6.860;2022-08-21T03:15:33;14.10;99.90
59857;DHT22;45733;52.668;6.860;2022-08-21T03:17:59;14.10;99.90
59857;DHT22;45733;52.668;6.860;2022-08-21T03:20:28;14.20;99.90
59857;DHT22;45733;52.668;6.860;2022-08-21T03:22:54;14.20;99.90
59857;DHT22;45733;52.668;6.860;2022-08-21T03:25:24;14.20;99.90
59857;DHT22;45733;52.668;6.860;2022-08-21T03:27:50;14.10;99.90
59857;DHT22;45733;52.668;6.860;2022-08-21T03:30:18;14.20;99.90
59857;DHT22;45733;52.668;6.860;2022-08-21T03:32:46;14.20;99.90
59857;DHT22;45733;52.668;6.860;2022-08-21T03:35:13;14.10;99.90
59857;DHT22;45733;52.668;6.860;2022-08-21T03:37:39;14.20;99.90
59857;DHT22;45733;52.668;6.860;2022-08-21T03:40:07;14.10;99.90
59857;DHT22;45733;52.668;6.860;2022-08-21T03:42:33;14.10;99.90
59857;DHT22;45733;52.668;6.860;2022-08-21T03:45:00;14.10;99.90
59857;DHT22;45733;52.668;6.860;2022-08-21T03:47:26;14.10;99.90
59857;DHT22;45733;52.668;6.860;2022-08-21T03:49:52;14.00;99.90
59857;DHT22;45733;52.668;6.860;2022-08-21T03:52:18;14.00;99.90
59857;DHT22;45733;52.668;6.860;2022-08-21T03:54:44;13.90;99.90
59857;DHT22;45733;52.668;6.860;2022-08-21T03:57:10;13.90;99.90
59857;DHT22;45733;52.668;6.860;2022-08-21T03:59:55;13.90;99.90
59857;DHT22;45733;52.668;6.860;2022-08-21T04:02:21;13.80;99.90
59857;DHT22;45733;52.668;6.860;2022-08-21T04:04:46;13.80;99.90
59857;DHT22;45733;52.668;6.860;2022-08-21T04:07:12;13.80;99.90
59857;DHT22;45733;52.668;6.860;2022-08-21T04:09:38;13.90;99.90
59857;DHT22;45733;52.668;6.860;2022-08-21T04:12:04;13.90;99.90
59857;DHT22;45733;52.668;6.860;2022-08-21T04:14:31;14.00;99.90
59857;DHT22;45733;52.668;6.860;2022-08-21T04:16:56;14.00;99.90
59857;DHT22;45733;52.668;6.860;2022-08-21T04:19:22;14.00;99.90
59857;DHT22;45733;52.668;6.860;2022-08-21T04:21:48;14.00;99.90
59857;DHT22;45733;52.668;6.860;2022-08-21T04:24:15;14.00;99.90
59857;DHT22;45733;52.668;6.860;2022-08-21T04:26:40;13.90;99.90
59857;DHT22;45733;52.668;6.860;2022-08-21T04:29:06;13.90;99.90
59857;DHT22;45733;52.668;6.860;2022-08-21T04:31:33;13.90;99.90
59857;DHT22;45733;52.668;6.860;2022-08-21T04:33:59;13.90;99.90
59857;DHT22;45733;52.668;6.860;2022-08-21T04:36:25;13.90;99.90
59857;DHT22;45733;52.668;6.860;2022-08-21T04:38:51;13.90;99.90
59857;DHT22;45733;52.668;6.860;2022-08-21T04:41:17;13.90;99.90
59857;DHT22;45733;52.668;6.860;2022-08-21T04:43:43;13.90;99.90
59857;DHT22;45733;52.668;6.860;2022-08-21T04:46:09;13.90;99.90
59857;DHT22;45733;52.668;6.860;2022-08-21T04:48:34;13.90;99.90
59857;DHT22;45733;52.668;6.860;2022-08-21T04:51:14;13.90;99.90
59857;DHT22;45733;52.668;6.860;2022-08-21T04:53:50;13.90;99.90
59857;DHT22;45733;52.668;6.860;2022-08-21T04:56:23;13.90;99.90
59857;DHT22;45733;52.668;6.860;2022-08-21T04:58:50;13.90;99.90
59857;DHT22;45733;52.668;6.860;2022-08-21T05:01:21;14.00;99.90
59857;DHT22;45733;52.668;6.860;2022-08-21T05:03:49;14.20;99.90
59857;DHT22;45733;52.668;6.860;2022-08-21T05:06:17;14.40;99.90
59857;DHT22;45733;52.668;6.860;2022-08-21T05:08:45;15.20;99.90
59857;DHT22;45733;52.668;6.860;2022-08-21T05:11:13;16.00;99.90
59857;DHT22;45733;52.668;6.860;2022-08-21T05:13:38;16.60;99.90
59857;DHT22;45733;52.668;6.860;2022-08-21T05:16:07;17.20;99.90
59857;DHT22;45733;52.668;6.860;2022-08-21T05:18:33;17.70;99.90
59857;DHT22;45733;52.668;6.860;2022-08-21T05:20:58;18.40;99.90
59857;DHT22;45733;52.668;6.860;2022-08-21T05:23:24;18.90;99.90
59857;DHT22;45733;52.668;6.860;2022-08-21T05:25:51;19.20;99.90
59857;DHT22;45733;52.668;6.860;2022-08-21T05:28:17;19.70;99.90
59857;DHT22;45733;52.668;6.860;2022-08-21T05:30:43;19.60;99.90
59857;DHT22;45733;52.668;6.860;2022-08-21T05:33:09;20.20;99.90
59857;DHT22;45733;52.668;6.860;2022-08-21T05:35:35;20.40;99.90
59857;DHT22;45733;52.668;6.860;2022-08-21T05:38:02;20.80;99.90
59857;DHT22;45733;52.668;6.860;2022-08-21T05:40:28;21.10;99.90
59857;DHT22;45733;52.668;6.860;2022-08-21T05:42:55;21.50;99.90
59857;DHT22;45733;52.668;6.860;2022-08-21T05:45:32;21.60;99.90
59857;DHT22;45733;52.668;6.860;2022-08-21T05:48:05;21.70;99.90
59857;DHT22;45733;52.668;6.860;2022-08-21T05:50:31;21.30;99.90
59857;DHT22;45733;52.668;6.860;2022-08-21T05:52:57;21.50;99.90
59857;DHT22;45733;52.668;6.860;2022-08-21T05:55:22;19.90;99.90
59857;DHT22;45733;52.668;6.860;2022-08-21T05:57:48;19.00;99.90
59857;DHT22;45733;52.668;6.860;2022-08-21T06:00:14;18.70;99.90
59857;DHT22;45733;52.668;6.860;2022-08-21T06:02:40;18.60;99.90
59857;DHT22;45733;52.668;6.860;2022-08-21T06:05:06;18.30;99.90
59857;DHT22;45733;52.668;6.860;2022-08-21T06:07:32;18.40;99.90
59857;DHT22;45733;52.668;6.860;2022-08-21T06:09:58;18.30;99.90
59857;DHT22;45733;52.668;6.860;2022-08-21T06:12:23;18.40;99.90
59857;DHT22;45733;52.668;6.860;2022-08-21T06:14:50;18.30;99.90
59857;DHT22;45733;52.668;6.860;2022-08-21T06:17:18;18.50;99.90
59857;DHT22;45733;52.668;6.860;2022-08-21T06:19:44;18.50;99.90
59857;DHT22;45733;52.668;6.860;2022-08-21T06:22:10;18.50;99.90
59857;DHT22;45733;52.668;6.860;2022-08-21T06:24:35;18.50;99.90
59857;DHT22;45733;52.668;6.860;2022-08-21T06:27:06;18.50;99.90
59857;DHT22;45733;52.668;6.860;2022-08-21T06:29:33;18.50;99.90
59857;DHT22;45733;52.668;6.860;2022-08-21T06:32:00;18.60;99.90
59857;DHT22;45733;52.668;6.860;2022-08-21T06:34:26;18.90;99.90
59857;DHT22;45733;52.668;6.860;2022-08-21T06:36:52;18.80;99.90
59857;DHT22;45733;52.668;6.860;2022-08-21T06:39:17;18.80;99.90
59857;DHT22;45733;52.668;6.860;2022-08-21T06:41:43;19.00;99.90
59857;DHT22;45733;52.668;6.860;2022-08-21T06:44:09;19.10;99.90
59857;DHT22;45733;52.668;6.860;2022-08-21T06:46:35;19.10;99.90
59857;DHT22;45733;52.668;6.860;2022-08-21T06:49:01;19.30;99.90
59857;DHT22;45733;52.668;6.860;2022-08-21T06:51:27;19.40;99.90
59857;DHT22;45733;52.668;6.860;2022-08-21T06:53:53;19.60;99.90
59857;DHT22;45733;52.668;6.860;2022-08-21T06:56:19;19.70;99.90
59857;DHT22;45733;52.668;6.860;2022-08-21T06:58:46;19.80;99.90
59857;DHT22;45733;52.668;6.860;2022-08-21T07:01:11;20.00;99.90
59857;DHT22;45733;52.668;6.860;2022-08-21T07:03:40;19.80;99.90
59857;DHT22;45733;52.668;6.860;2022-08-21T07:06:07;20.10;99.90
59857;DHT22;45733;52.668;6.860;2022-08-21T07:08:34;20.30;99.90
59857;DHT22;45733;52.668;6.860;2022-08-21T07:11:02;20.30;99.90
59857;DHT22;45733;52.668;6.860;2022-08-21T07:13:29;20.30;99.90
59857;DHT22;45733;52.668;6.860;2022-08-21T07:15:55;20.40;99.90
59857;DHT22;45733;52.668;6.860;2022-08-21T07:18:21;20.30;99.90
59857;DHT22;45733;52.668;6.860;2022-08-21T07:20:47;20.60;99.90
59857;DHT22;45733;52.668;6.860;2022-08-21T07:23:22;20.80;99.90
59857;DHT22;45733;52.668;6.860;2022-08-21T07:25:50;20.80;99.90
59857;DHT22;45733;52.668;6.860;2022-08-21T07:28:15;20.80;99.90
59857;DHT22;45733;52.668;6.860;2022-08-21T07:30:41;20.80;99.90
59857;DHT22;45733;52.668;6.860;2022-08-21T07:33:07;20.90;99.90
59857;DHT22;45733;52.668;6.860;2022-08-21T07:35:33;21.00;99.90
59857;DHT22;45733;52.668;6.860;2022-08-21T07:37:59;21.20;99.90
59857;DHT22;45733;52.668;6.860;2022-08-21T07:40:25;21.10;99.90
59857;DHT22;45733;52.668;6.860;2022-08-21T07:42:51;21.30;99.90
59857;DHT22;45733;52.668;6.860;2022-08-21T07:45:21;21.30;99.90
59857;DHT22;45733;52.668;6.860;2022-08-21T07:47:47;21.30;99.90
59857;DHT22;45733;52.668;6.860;2022-08-21T07:50:14;21.50;99.90
59857;DHT22;45733;52.668;6.860;2022-08-21T07:52:41;21.60;99.90
59857;DHT22;45733;52.668;6.860;2022-08-21T07:55:09;21.60;99.90
59857;DHT22;45733;52.668;6.860;2022-08-21T07:57:36;21.60;99.90
59857;DHT22;45733;52.668;6.860;2022-08-21T08:00:05;21.60;99.90
59857;DHT22;45733;52.668;6.860;2022-08-21T08:02:31;21.80;99.90
59857;DHT22;45733;52.668;6.860;2022-08-21T08:05:01;21.70;99.90
59857;DHT22;45733;52.668;6.860;2022-08-21T08:07:29;21.80;99.90
59857;DHT22;45733;52.668;6.860;2022-08-21T08:09:54;21.70;99.90
59857;DHT22;45733;52.668;6.860;2022-08-21T08:12:20;22.00;99.90
59857;DHT22;45733;52.668;6.860;2022-08-21T08:14:46;22.10;99.90
59857;DHT22;45733;52.668;6.860;2022-08-21T08:17:12;22.10;99.90
59857;DHT22;45733;52.668;6.860;2022-08-21T08:19:39;22.20;99.90
59857;DHT22;45733;52.668;6.860;2022-08-21T08:22:13;22.40;99.90
59857;DHT22;45733;52.668;6.860;2022-08-21T08:24:39;22.50;99.90
59857;DHT22;45733;52.668;6.860;2022-08-21T08:27:05;22.50;99.90
59857;DHT22;45733;52.668;6.860;2022-08-21T08:29:31;22.50;99.90
59857;DHT22;45733;52.668;6.860;2022-08-21T08:31:56;22.70;99.90
59857;DHT22;45733;52.668;6.860;2022-08-21T08:34:23;22.70;99.90
59857;DHT22;45733;52.668;6.860;2022-08-21T08:36:49;22.70;99.90
59857;DHT22;45733;52.668;6.860;2022-08-21T08:39:14;22.70;99.90
59857;DHT22;45733;52.668;6.860;2022-08-21T08:41:41;22.90;99.90
59857;DHT22;45733;52.668;6.860;2022-08-21T08:44:08;22.90;99.90
59857;DHT22;45733;52.668;6.860;2022-08-21T08:46:41;22.90;99.90
59857;DHT22;45733;52.668;6.860;2022-08-21T08:49:26;22.90;99.90
59857;DHT22;45733;52.668;6.860;2022-08-21T08:52:02;22.90;99.90
59857;DHT22;45733;52.668;6.860;2022-08-21T08:54:35;23.20;99.90
59857;DHT22;45733;52.668;6.860;2022-08-21T08:57:09;23.30;99.90
59857;DHT22;45733;52.668;6.860;2022-08-21T08:59:40;23.50;99.90
59857;DHT22;45733;52.668;6.860;2022-08-21T09:02:09;23.40;99.90
59857;DHT22;45733;52.668;6.860;2022-08-21T09:04:36;23.60;99.90
59857;DHT22;45733;52.668;6.860;2022-08-21T09:07:24;23.90;99.90
59857;DHT22;45733;52.668;6.860;2022-08-21T09:18:20;24.00;99.90
59857;DHT22;45733;52.668;6.860;2022-08-21T09:27:14;24.00;99.90
59857;DHT22;45733;52.668;6.860;2022-08-21T09:29:46;24.20;99.90
59857;DHT22;45733;52.668;6.860;2022-08-21T09:32:29;24.40;99.90
59857;DHT22;45733;52.668;6.860;2022-08-21T09:37:27;24.50;99.90
59857;DHT22;45733;52.668;6.860;2022-08-21T09:39:55;24.80;99.90
59857;DHT22;45733;52.668;6.860;2022-08-21T09:42:29;25.00;99.90
59857;DHT22;45733;52.668;6.860;2022-08-21T09:45:23;25.30;99.90
59857;DHT22;45733;52.668;6.860;2022-08-21T09:47:49;25.60;99.90
59857;DHT22;45733;52.668;6.860;2022-08-21T09:50:19;25.80;99.90
59857;DHT22;45733;52.668;6.860;2022-08-21T09:52:57;26.10;99.90
59857;DHT22;45733;52.668;6.860;2022-08-21T09:55:31;26.10;99.90
59857;DHT22;45733;52.668;6.860;2022-08-21T09:58:18;26.10;99.90
59857;DHT22;45733;52.668;6.860;2022-08-21T10:00:44;26.10;99.90
59857;DHT22;45733;52.668;6.860;2022-08-21T10:03:21;25.80;99.90
59857;DHT22;45733;52.668;6.860;2022-08-21T10:06:07;25.40;99.90
59857;DHT22;45733;52.668;6.860;2022-08-21T10:08:37;25.60;99.90
59857;DHT22;45733;52.668;6.860;2022-08-21T10:11:13;25.50;99.90
59857;DHT22;45733;52.668;6.860;2022-08-21T10:13:54;25.50;99.90
59857;DHT22;45733;52.668;6.860;2022-08-21T10:24:14;26.10;99.90
59857;DHT22;45733;52.668;6.860;2022-08-21T10:26:56;26.20;99.90
59857;DHT22;45733;52.668;6.860;2022-08-21T10:35:08;26.40;99.90
59857;DHT22;45733;52.668;6.860;2022-08-21T10:51:09;27.10;99.90
59857;DHT22;45733;52.668;6.860;2022-08-21T10:56:31;27.30;99.90
59857;DHT22;45733;52.668;6.860;2022-08-21T10:59:38;27.00;99.90
59857;DHT22;45733;52.668;6.860;2022-08-21T11:02:24;27.00;99.90
59857;DHT22;45733;52.668;6.860;2022-08-21T11:04:57;26.80;99.90
59857;DHT22;45733;52.668;6.860;2022-08-21T11:07:45;27.10;99.90
59857;DHT22;45733;52.668;6.860;2022-08-21T11:10:26;27.20;99.90
59857;DHT22;45733;52.668;6.860;2022-08-21T11:13:00;27.00;99.90
59857;DHT22;45733;52.668;6.860;2022-08-21T11:20:59;27.30;99.90
59857;DHT22;45733;52.668;6.860;2022-08-21T11:23:31;27.40;99.90
59857;DHT22;45733;52.668;6.860;2022-08-21T11:26:04;27.00;99.90
59857;DHT22;45733;52.668;6.860;2022-08-21T11:28:37;27.00;99.90
59857;DHT22;45733;52.668;6.860;2022-08-21T11:31:31;27.40;99.90
59857;DHT22;45733;52.668;6.860;2022-08-21T11:42:50;27.30;99.90
59857;DHT22;45733;52.668;6.860;2022-08-21T11:45:50;27.60;99.90
59857;DHT22;45733;52.668;6.860;2022-08-21T11:48:40;27.70;99.90
59857;DHT22;45733;52.668;6.860;2022-08-21T11:51:13;27.00;99.90
59857;DHT22;45733;52.668;6.860;2022-08-21T11:53:48;27.30;99.90
59857;DHT22;45733;52.668;6.860;2022-08-21T11:56:31;27.20;99.90
59857;DHT22;45733;52.668;6.860;2022-08-21T11:59:06;27.40;99.90
59857;DHT22;45733;52.668;6.860;2022-08-21T12:01:39;27.80;99.90
59857;DHT22;45733;52.668;6.860;2022-08-21T12:04:31;28.00;99.90
59857;DHT22;45733;52.668;6.860;2022-08-21T12:07:17;28.10;99.90
59857;DHT22;45733;52.668;6.860;2022-08-21T12:09:55;28.20;99.90
59857;DHT22;45733;52.668;6.860;2022-08-21T12:14:49;28.20;99.90
59857;DHT22;45733;52.668;6.860;2022-08-21T12:17:21;27.30;99.90
59857;DHT22;45733;52.668;6.860;2022-08-21T12:25:58;28.00;99.90
59857;DHT22;45733;52.668;6.860;2022-08-21T12:28:26;28.10;99.90
59857;DHT22;45733;52.668;6.860;2022-08-21T12:30:53;28.40;99.90
59857;DHT22;45733;52.668;6.860;2022-08-21T12:33:38;28.50;99.90
59857;DHT22;45733;52.668;6.860;2022-08-21T12:36:12;28.50;99.90
59857;DHT22;45733;52.668;6.860;2022-08-21T12:38:49;28.40;99.90
59857;DHT22;45733;52.668;6.860;2022-08-21T12:44:09;28.30;99.90
59857;DHT22;45733;52.668;6.860;2022-08-21T12:47:23;27.50;99.70
59857;DHT22;45733;52.668;6.860;2022-08-21T12:49:52;27.40;99.90
59857;DHT22;45733;52.668;6.860;2022-08-21T12:52:30;28.10;99.90
59857;DHT22;45733;52.668;6.860;2022-08-21T12:54:56;28.60;99.90
59857;DHT22;45733;52.668;6.860;2022-08-21T12:57:27;28.80;99.90
59857;DHT22;45733;52.668;6.860;2022-08-21T12:59:56;28.90;99.00
59857;DHT22;45733;52.668;6.860;2022-08-21T13:02:26;28.80;99.50
59857;DHT22;45733;52.668;6.860;2022-08-21T13:04:53;29.00;99.70
59857;DHT22;45733;52.668;6.860;2022-08-21T13:07:33;29.20;99.50
59857;DHT22;45733;52.668;6.860;2022-08-21T13:10:20;29.00;98.80
59857;DHT22;45733;52.668;6.860;2022-08-21T13:12:47;28.80;98.60
59857;DHT22;45733;52.668;6.860;2022-08-21T13:15:14;28.20;98.90
59857;DHT22;45733;52.668;6.860;2022-08-21T13:17:45;27.70;99.30
59857;DHT22;45733;52.668;6.860;2022-08-21T13:20:23;27.40;99.70
59857;DHT22;45733;52.668;6.860;2022-08-21T13:22:50;27.10;99.90
59857;DHT22;45733;52.668;6.860;2022-08-21T13:25:18;27.00;99.90
59857;DHT22;45733;52.668;6.860;2022-08-21T13:27:57;27.40;99.90
59857;DHT22;45733;52.668;6.860;2022-08-21T13:30:24;27.90;99.90
59857;DHT22;45733;52.668;6.860;2022-08-21T13:32:59;28.00;99.90
59857;DHT22;45733;52.668;6.860;2022-08-21T13:35:35;27.70;99.90
59857;DHT22;45733;52.668;6.860;2022-08-21T13:38:03;27.50;99.90
59857;DHT22;45733;52.668;6.860;2022-08-21T13:40:38;27.80;99.90
59857;DHT22;45733;52.668;6.860;2022-08-21T13:43:11;28.00;99.90
59857;DHT22;45733;52.668;6.860;2022-08-21T13:45:38;27.90;99.70
59857;DHT22;45733;52.668;6.860;2022-08-21T13:48:04;27.10;99.70
59857;DHT22;45733;52.668;6.860;2022-08-21T13:50:34;26.80;99.90
59857;DHT22;45733;52.668;6.860;2022-08-21T13:53:04;27.70;99.90
59857;DHT22;45733;52.668;6.860;2022-08-21T13:55:41;28.00;99.90
59857;DHT22;45733;52.668;6.860;2022-08-21T13:58:08;28.20;99.90
59857;DHT22;45733;52.668;6.860;2022-08-21T14:00:51;28.60;99.90
59857;DHT22;45733;52.668;6.860;2022-08-21T14:03:38;28.10;99.20
59857;DHT22;45733;52.668;6.860;2022-08-21T14:06:16;27.60;99.50
59857;DHT22;45733;52.668;6.860;2022-08-21T14:08:51;28.00;99.40
59857;DHT22;45733;52.668;6.860;2022-08-21T14:11:17;28.10;99.70
59857;DHT22;45733;52.668;6.860;2022-08-21T14:16:40;27.30;99.30
59857;DHT22;45733;52.668;6.860;2022-08-21T14:19:28;26.70;99.90
59857;DHT22;45733;52.668;6.860;2022-08-21T14:22:01;26.40;99.90
59857;DHT22;45733;52.668;6.860;2022-08-21T14:24:29;26.10;99.90
59857;DHT22;45733;52.668;6.860;2022-08-21T14:27:06;26.10;99.90
59857;DHT22;45733;52.668;6.860;2022-08-21T14:29:37;26.50;99.90
59857;DHT22;45733;52.668;6.860;2022-08-21T14:32:34;26.40;99.90
59857;DHT22;45733;52.668;6.860;2022-08-21T14:35:01;26.50;99.90
59857;DHT22;45733;52.668;6.860;2022-08-21T14:37:27;26.30;99.90
59857;DHT22;45733;52.668;6.860;2022-08-21T14:39:53;26.50;99.90
59857;DHT22;45733;52.668;6.860;2022-08-21T14:42:19;26.50;99.90
59857;DHT22;45733;52.668;6.860;2022-08-21T14:44:45;26.20;99.90
59857;DHT22;45733;52.668;6.860;2022-08-21T14:47:11;26.20;99.90
59857;DHT22;45733;52.668;6.860;2022-08-21T14:49:37;26.50;99.90
59857;DHT22;45733;52.668;6.860;2022-08-21T14:52:03;26.90;99.90
59857;DHT22;45733;52.668;6.860;2022-08-21T14:54:30;27.00;99.90
59857;DHT22;45733;52.668;6.860;2022-08-21T14:56:57;27.00;99.90
59857;DHT22;45733;52.668;6.860;2022-08-21T14:59:24;26.80;99.90
59857;DHT22;45733;52.668;6.860;2022-08-21T15:01:51;26.70;99.90
59857;DHT22;45733;52.668;6.860;2022-08-21T15:04:17;26.50;99.90
59857;DHT22;45733;52.668;6.860;2022-08-21T15:06:44;26.40;99.90
59857;DHT22;45733;52.668;6.860;2022-08-21T15:09:10;26.10;99.90
59857;DHT22;45733;52.668;6.860;2022-08-21T15:11:36;26.30;99.90
59857;DHT22;45733;52.668;6.860;2022-08-21T15:14:08;26.60;99.90
59857;DHT22;45733;52.668;6.860;2022-08-21T15:16:36;26.90;99.90
59857;DHT22;45733;52.668;6.860;2022-08-21T15:19:02;27.00;99.90
59857;DHT22;45733;52.668;6.860;2022-08-21T15:21:28;26.80;99.90
59857;DHT22;45733;52.668;6.860;2022-08-21T15:23:54;26.70;99.90
59857;DHT22;45733;52.668;6.860;2022-08-21T15:26:22;26.50;99.90
59857;DHT22;45733;52.668;6.860;2022-08-21T15:28:48;26.40;99.90
59857;DHT22;45733;52.668;6.860;2022-08-21T15:31:14;26.40;99.90
59857;DHT22;45733;52.668;6.860;2022-08-21T15:33:39;26.00;99.90
59857;DHT22;45733;52.668;6.860;2022-08-21T15:36:06;25.90;99.90
59857;DHT22;45733;52.668;6.860;2022-08-21T15:38:32;25.90;99.90
59857;DHT22;45733;52.668;6.860;2022-08-21T15:40:58;25.80;99.90
59857;DHT22;45733;52.668;6.860;2022-08-21T15:43:32;25.80;99.90
59857;DHT22;45733;52.668;6.860;2022-08-21T15:46:01;25.80;99.90
59857;DHT22;45733;52.668;6.860;2022-08-21T15:48:28;25.70;99.90
59857;DHT22;45733;52.668;6.860;2022-08-21T15:50:53;25.60;99.90
59857;DHT22;45733;52.668;6.860;2022-08-21T15:53:19;25.50;99.90
59857;DHT22;45733;52.668;6.860;2022-08-21T15:55:45;25.40;99.90
59857;DHT22;45733;52.668;6.860;2022-08-21T15:58:15;25.20;99.90
59857;DHT22;45733;52.668;6.860;2022-08-21T16:00:42;25.10;99.90
59857;DHT22;45733;52.668;6.860;2022-08-21T16:03:11;25.00;99.90
59857;DHT22;45733;52.668;6.860;2022-08-21T16:05:39;24.80;99.90
59857;DHT22;45733;52.668;6.860;2022-08-21T16:08:05;24.70;99.90
59857;DHT22;45733;52.668;6.860;2022-08-21T16:10:31;24.80;99.90
59857;DHT22;45733;52.668;6.860;2022-08-21T16:13:01;24.70;99.90
59857;DHT22;45733;52.668;6.860;2022-08-21T16:15:27;24.60;99.90
59857;DHT22;45733;52.668;6.860;2022-08-21T16:17:54;24.60;99.90
59857;DHT22;45733;52.668;6.860;2022-08-21T16:20:27;24.50;99.90
59857;DHT22;45733;52.668;6.860;2022-08-21T16:22:54;24.50;99.90
59857;DHT22;45733;52.668;6.860;2022-08-21T16:25:20;24.30;99.90
59857;DHT22;45733;52.668;6.860;2022-08-21T16:27:51;24.30;99.90
59857;DHT22;45733;52.668;6.860;2022-08-21T16:30:18;24.10;99.90
59857;DHT22;45733;52.668;6.860;2022-08-21T16:32:45;24.10;99.90
59857;DHT22;45733;52.668;6.860;2022-08-21T16:35:14;24.00;99.90
59857;DHT22;45733;52.668;6.860;2022-08-21T16:37:40;24.00;99.90
59857;DHT22;45733;52.668;6.860;2022-08-21T16:40:07;23.90;99.90
59857;DHT22;45733;52.668;6.860;2022-08-21T16:42:36;23.90;99.90
59857;DHT22;45733;52.668;6.860;2022-08-21T16:45:09;24.00;99.90
59857;DHT22;45733;52.668;6.860;2022-08-21T16:47:36;23.90;99.90
59857;DHT22;45733;52.668;6.860;2022-08-21T16:50:02;23.80;99.90
59857;DHT22;45733;52.668;6.860;2022-08-21T16:52:29;23.90;99.90
59857;DHT22;45733;52.668;6.860;2022-08-21T16:54:55;23.90;99.90
59857;DHT22;45733;52.668;6.860;2022-08-21T16:57:21;24.10;99.90
59857;DHT22;45733;52.668;6.860;2022-08-21T16:59:48;24.10;99.90